Time;durP1;ratioP1;P1;durP2;ratioP2;P2;SDS_P1;SDS_P2;PMS_P1;PMS_P2;Temp;Humidity;BMP_temperature;BMP_pressure;BME280_temperature;BME280_humidity;BME280_pressure;Samples;Min_cycle;Max_cycle;Signal;HPM_P1;HPM_P2
2022/08/09 00:00:12;;;;;;;4.60;2.30;;;;;;;21.80;47.59;102559.44;5092795;28;20051;-68
2022/08/09 00:02:39;;;;;;;5.38;2.50;;;;;;;21.77;48.07;102557.84;5092127;28;20044;-67
2022/08/09 00:05:29;;;;;;;4.15;2.63;;;;;;;21.73;47.68;102564.59;5092823;28;20478;-68
2022/08/09 00:08:16;;;;;;;4.13;2.50;;;;;;;21.73;47.84;102555.53;5092894;28;20043;-68
2022/08/09 00:10:59;;;;;;;4.63;2.88;;;;;;;21.71;47.94;102555.66;5092431;28;20121;-68
2022/08/09 00:13:35;;;;;;;5.38;2.67;;;;;;;21.73;48.31;102556.38;5091656;28;20044;-68
2022/08/09 00:16:06;;;;;;;4.53;2.80;;;;;;;21.72;48.05;102556.53;5092730;28;20071;-68
2022/08/09 00:18:38;;;;;;;5.90;2.80;;;;;;;21.71;48.44;102552.06;5092680;28;20048;-69
2022/08/09 00:21:08;;;;;;;2.80;2.45;;;;;;;21.69;48.26;102557.69;5092174;27;20085;-68
2022/08/09 00:23:36;;;;;;;5.50;2.70;;;;;;;21.68;48.54;102555.09;5092547;28;20047;-68
2022/08/09 00:26:28;;;;;;;4.70;2.92;;;;;;;21.65;48.49;102555.38;5092775;28;20051;-68
2022/08/09 00:29:00;;;;;;;3.78;2.88;;;;;;;21.64;48.36;102551.75;5092544;28;20060;-69
2022/08/09 00:31:27;;;;;;;4.40;2.80;;;;;;;21.64;48.55;102557.22;5072474;28;20044;-69
2022/08/09 00:34:17;;;;;;;4.88;2.88;;;;;;;21.62;48.67;102553.78;5072102;28;20055;-69
2022/08/09 00:36:48;;;;;;;5.25;2.72;;;;;;;21.61;48.83;102556.66;5072450;28;20036;-69
2022/08/09 00:39:16;;;;;;;5.20;2.50;;;;;;;21.59;48.54;102558.66;5074387;28;20071;-69
2022/08/09 00:42:03;;;;;;;4.95;3.30;;;;;;;21.56;48.91;102549.72;5092543;28;20561;-69
2022/08/09 00:44:49;;;;;;;2.95;2.60;;;;;;;21.53;48.60;102549.09;5092516;28;20548;-69
2022/08/09 00:47:19;;;;;;;3.42;2.55;;;;;;;21.49;48.59;102547.66;5092505;28;20047;-69
2022/08/09 00:49:45;;;;;;;4.70;2.50;;;;;;;21.46;48.93;102547.94;5091960;28;20038;-69
2022/08/09 00:52:21;;;;;;;4.50;3.05;;;;;;;21.43;48.69;102549.06;5092580;28;20068;-69
2022/08/09 00:54:58;;;;;;;6.70;2.50;;;;;;;21.43;48.78;102559.16;5092645;27;20113;-69
2022/08/09 00:57:30;;;;;;;4.50;2.92;;;;;;;21.42;48.91;102557.41;5092993;28;20469;-69
2022/08/09 01:00:08;;;;;;;5.72;2.92;;;;;;;21.39;48.87;102557.69;5092308;28;20032;-69
2022/08/09 01:03:15;;;;;;;3.25;2.95;;;;;;;21.37;49.07;102562.44;5092603;28;20044;-69
2022/08/09 01:05:45;;;;;;;5.50;3.30;;;;;;;21.36;48.98;102566.16;5088317;28;20048;-69
2022/08/09 01:08:33;;;;;;;3.75;2.95;;;;;;;21.32;49.48;102560.09;5096421;28;20482;-69
2022/08/09 01:11:16;;;;;;;7.53;3.38;;;;;;;21.29;49.40;102562.25;5096775;28;20067;-69
2022/08/09 01:14:08;;;;;;;5.13;3.83;;;;;;;21.23;49.63;102558.19;5096376;28;20051;-69
2022/08/09 01:16:41;;;;;;;4.80;3.70;;;;;;;21.24;49.52;102563.53;5096148;28;20509;-68
2022/08/09 01:19:41;;;;;;;4.03;3.63;;;;;;;21.20;49.65;102558.44;5096792;27;20058;-68
2022/08/09 01:23:06;;;;;;;4.68;3.45;;;;;;;21.18;49.63;102555.84;5096393;28;20040;-68
2022/08/09 01:26:32;;;;;;;6.25;3.08;;;;;;;21.16;49.51;102567.91;5096656;28;20032;-68
2022/08/09 01:29:02;;;;;;;3.75;3.22;;;;;;;21.15;49.16;102564.31;5074636;28;20053;-68
2022/08/09 01:31:33;;;;;;;5.18;3.88;;;;;;;21.10;49.60;102552.94;5076345;28;20049;-68
2022/08/09 01:34:23;;;;;;;4.25;3.50;;;;;;;21.07;49.62;102557.81;5076195;28;20047;-68
2022/08/09 01:36:56;;;;;;;7.20;3.58;;;;;;;21.03;49.39;102559.06;5084404;28;20401;-67
2022/08/09 01:39:25;;;;;;;4.30;3.60;;;;;;;21.00;49.66;102551.16;5096091;27;20056;-67
2022/08/09 01:41:53;;;;;;;4.65;3.20;;;;;;;20.97;49.87;102551.41;5096040;28;20064;-68
2022/08/09 01:44:53;;;;;;;4.72;3.20;;;;;;;20.93;49.68;102551.69;5096029;28;20505;-68
2022/08/09 01:47:23;;;;;;;3.88;3.13;;;;;;;20.90;49.70;102549.22;5095756;28;20036;-68
2022/08/09 01:49:58;;;;;;;4.25;3.65;;;;;;;20.88;49.70;102547.63;5095901;28;20048;-68
2022/08/09 01:52:26;;;;;;;6.82;3.55;;;;;;;20.84;49.77;102547.03;5095856;28;20048;-68
2022/08/09 01:54:58;;;;;;;4.43;3.60;;;;;;;20.81;50.16;102560.09;5095890;28;20040;-68
2022/08/09 01:57:38;;;;;;;4.43;3.55;;;;;;;20.78;50.41;102549.41;5095535;27;20090;-68
2022/08/09 02:00:13;;;;;;;5.75;3.67;;;;;;;20.76;50.01;102552.28;5095780;28;20040;-68
2022/08/09 02:03:08;;;;;;;5.72;4.03;;;;;;;20.73;50.43;102554.41;5094791;28;20032;-69
2022/08/09 02:05:43;;;;;;;6.43;3.63;;;;;;;20.73;50.36;102558.00;5094563;28;20074;-68
2022/08/09 02:08:32;;;;;;;5.07;3.60;;;;;;;20.71;49.96;102557.28;5074106;28;20045;-68
2022/08/09 02:11:19;;;;;;;6.60;4.53;;;;;;;20.69;50.18;102564.72;5073997;28;20041;-67
2022/08/09 02:13:46;;;;;;;7.60;4.40;;;;;;;20.66;50.34;102553.22;5073972;28;20502;-68
2022/08/09 02:16:36;;;;;;;6.88;4.57;;;;;;;20.65;50.49;102565.13;5078717;28;20043;-69
2022/08/09 02:19:23;;;;;;;8.13;4.40;;;;;;;20.63;50.55;102563.41;5094331;28;20040;-67
2022/08/09 02:22:07;;;;;;;5.63;4.00;;;;;;;20.60;50.54;102565.53;5093799;28;20032;-68
2022/08/09 02:24:36;;;;;;;7.78;4.88;;;;;;;20.57;50.79;102566.66;5093999;28;20053;-68
2022/08/09 02:27:07;;;;;;;7.30;4.40;;;;;;;20.56;50.82;102566.78;5093939;28;20032;-68
2022/08/09 02:29:43;;;;;;;8.40;4.35;;;;;;;20.54;51.19;102564.19;5094158;28;20036;-68
2022/08/09 02:32:17;;;;;;;6.75;4.53;;;;;;;20.53;50.86;102557.00;5093837;28;20094;-68
2022/08/09 02:34:48;;;;;;;9.15;4.90;;;;;;;20.51;51.24;102560.88;5094444;27;20032;-68
2022/08/09 02:37:27;;;;;;;10.30;4.95;;;;;;;20.50;51.01;102565.47;5093306;28;20245;-69
2022/08/09 02:40:06;;;;;;;;;;;;;;;20.49;50.85;102565.59;5094579;28;20036;-69
2022/08/09 02:42:39;;;;;;;6.88;4.93;;;;;;;20.51;51.07;102567.19;5093498;28;19920;-68
2022/08/09 02:45:15;;;;;;;5.32;4.82;;;;;;;20.47;50.96;102556.66;5094232;28;20478;-69
2022/08/09 02:47:44;;;;;;;7.90;5.03;;;;;;;20.43;50.91;102564.25;5093373;28;20052;-68
2022/08/09 02:50:29;;;;;;;5.40;4.60;;;;;;;20.40;51.25;102558.19;5093310;28;20044;-69
2022/08/09 02:53:32;;;;;;;5.97;4.13;;;;;;;20.36;51.18;102553.97;5092385;28;20044;-69
2022/08/09 02:56:02;;;;;;;6.28;4.63;;;;;;;20.33;51.42;102552.38;5093495;28;20494;-69
2022/08/09 02:58:31;;;;;;;6.30;4.97;;;;;;;20.30;51.59;102548.03;5093219;28;20036;-69
2022/08/09 03:01:08;;;;;;;7.77;4.70;;;;;;;20.29;51.65;102545.44;5093754;28;20094;-69
2022/08/09 03:03:42;;;;;;;5.18;4.60;;;;;;;20.29;51.38;102542.72;5091970;27;20056;-68
2022/08/09 03:06:30;;;;;;;6.35;4.82;;;;;;;20.27;51.34;102561.94;5093335;28;20063;-69
2022/08/09 03:09:00;;;;;;;7.32;5.40;;;;;;;20.23;51.65;102557.75;5093325;28;20036;-69
2022/08/09 03:11:27;;;;;;;5.30;4.25;;;;;;;20.21;51.47;102550.69;5093258;28;20055;-69
2022/08/09 03:14:17;;;;;;;7.05;5.13;;;;;;;20.22;51.72;102555.16;5093168;28;20047;-70
2022/08/09 03:16:43;;;;;;;7.65;4.97;;;;;;;20.19;51.99;102553.53;5093082;28;20044;-69
2022/08/09 03:19:16;;;;;;;8.88;4.82;;;;;;;20.18;51.58;102551.81;5093503;28;20028;-69
2022/08/09 03:22:04;;;;;;;5.78;4.75;;;;;;;20.18;51.68;102553.66;5092744;28;20035;-69
2022/08/09 03:24:42;;;;;;;7.85;5.40;;;;;;;20.12;52.14;102549.59;5093071;28;20052;-69
2022/08/09 03:27:19;;;;;;;6.00;5.20;;;;;;;20.12;51.69;102544.16;5092933;27;20494;-68
2022/08/09 03:29:49;;;;;;;8.43;5.18;;;;;;;20.11;51.91;102545.13;5092992;28;20185;-69
2022/08/09 03:32:29;;;;;;;5.30;4.60;;;;;;;20.13;51.87;102539.56;5091678;28;20079;-69
2022/08/09 03:34:59;;;;;;;8.65;4.57;;;;;;;20.13;52.19;102543.16;5091156;28;20124;-69
2022/08/09 03:37:27;;;;;;;8.10;4.50;;;;;;;20.13;51.84;102545.88;5092863;28;20044;-70
2022/08/09 03:40:14;;;;;;;5.57;4.88;;;;;;;20.15;52.04;102557.53;5091734;28;20040;-68
2022/08/09 03:42:44;;;;;;;5.80;4.80;;;;;;;20.14;51.75;102554.94;5092537;28;20043;-67
2022/08/09 03:45:12;;;;;;;5.75;5.03;;;;;;;20.12;51.97;102549.59;5092617;27;20055;-68
2022/08/09 03:47:40;;;;;;;7.70;5.60;;;;;;;20.10;52.02;102556.19;5092927;28;20119;-68
2022/08/09 03:50:12;;;;;;;6.35;5.10;;;;;;;20.07;51.85;102554.56;5093152;28;20047;-68
2022/08/09 03:52:44;;;;;;;6.45;5.07;;;;;;;20.03;52.17;102558.53;5093163;28;20028;-68
2022/08/09 03:55:17;;;;;;;7.38;5.53;;;;;;;19.98;52.25;102558.06;5092694;28;20465;-69
2022/08/09 03:57:43;;;;;;;7.55;5.50;;;;;;;19.96;52.20;102558.19;5092756;28;20058;-68
2022/08/09 04:00:30;;;;;;;7.55;5.28;;;;;;;19.95;52.53;102561.03;5092806;28;20040;-68
2022/08/09 04:03:02;;;;;;;7.60;5.55;;;;;;;19.90;52.27;102558.69;5092550;28;20379;-70
2022/08/09 04:05:32;;;;;;;7.80;5.78;;;;;;;19.86;52.21;102559.94;5072265;28;20058;-69
2022/08/09 04:08:06;;;;;;;9.55;5.60;;;;;;;19.83;52.62;102560.19;5072422;28;20033;-68
2022/08/09 04:10:34;;;;;;;6.72;5.72;;;;;;;19.82;52.45;102563.06;5072531;28;20041;-68
2022/08/09 04:13:08;;;;;;;12.73;7.00;;;;;;;19.81;52.78;102556.72;5074718;28;20048;-69
2022/08/09 04:15:37;;;;;;;6.15;5.22;;;;;;;19.80;52.62;102555.00;5092235;27;20056;-70
2022/08/09 04:18:24;;;;;;;7.25;6.03;;;;;;;19.79;52.38;102557.84;5092688;28;20040;-70
2022/08/09 04:20:50;;;;;;;8.23;6.03;;;;;;;19.78;52.71;102564.31;5092682;28;20044;-70
2022/08/09 04:23:20;;;;;;;10.88;6.05;;;;;;;19.75;52.66;102557.25;5092021;28;20047;-70
2022/08/09 04:25:51;;;;;;;10.45;6.35;;;;;;;19.76;53.24;102558.09;5093426;28;20068;-70
2022/08/09 04:28:23;;;;;;;8.32;5.93;;;;;;;19.76;53.08;102558.97;5092956;28;20050;-70
2022/08/09 04:31:02;;;;;;;6.78;5.57;;;;;;;19.80;52.92;102567.75;5093146;28;20040;-70
2022/08/09 04:33:38;;;;;;;8.45;6.25;;;;;;;19.79;52.70;102561.44;5091470;28;20517;-70
2022/08/09 04:36:23;;;;;;;9.80;6.38;;;;;;;19.79;53.22;102576.94;5091364;27;20529;-69
2022/08/09 04:38:52;;;;;;;8.45;6.70;;;;;;;19.78;52.89;102577.94;5091654;28;20036;-70
2022/08/09 04:41:19;;;;;;;8.82;6.03;;;;;;;19.76;53.38;102578.06;5091337;28;20040;-69
2022/08/09 04:43:52;;;;;;;9.90;6.97;;;;;;;19.76;53.37;102579.91;5091526;28;20161;-69
2022/08/09 04:46:33;;;;;;;8.60;6.30;;;;;;;19.75;53.39;102579.06;5091870;28;20051;-69
2022/08/09 04:49:20;;;;;;;6.60;5.90;;;;;;;19.76;53.49;102579.91;5090505;28;20055;-70
2022/08/09 04:52:06;;;;;;;7.38;6.57;;;;;;;19.77;53.17;102587.09;5089858;28;20494;-69
2022/08/09 04:54:36;;;;;;;8.27;5.90;;;;;;;19.77;53.12;102581.66;5091505;28;20501;-69
2022/08/09 04:57:03;;;;;;;8.85;7.07;;;;;;;19.77;53.49;102585.25;5090040;28;20048;-69
2022/08/09 04:59:34;;;;;;;7.60;6.13;;;;;;;19.79;53.60;102590.56;5091371;27;20056;-70
2022/08/09 05:02:01;;;;;;;7.70;6.50;;;;;;;19.79;53.34;102596.88;5090319;28;20494;-69
2022/08/09 05:04:28;;;;;;;9.55;6.88;;;;;;;19.81;53.91;102594.03;5091268;28;20063;-70
2022/08/09 05:06:56;;;;;;;8.13;6.72;;;;;;;19.82;53.95;102598.50;5091494;28;20078;-69
2022/08/09 05:09:23;;;;;;;11.07;6.93;;;;;;;19.82;53.86;102595.78;5091334;28;20044;-70
2022/08/09 05:11:50;;;;;;;11.15;7.70;;;;;;;19.84;53.75;102599.22;5090786;28;20060;-69
2022/08/09 05:14:18;;;;;;;9.10;7.03;;;;;;;19.84;53.75;102599.22;5091461;28;20036;-69
2022/08/09 05:16:52;;;;;;;9.43;7.60;;;;;;;19.85;54.15;102600.97;5091106;28;20414;-68
2022/08/09 05:19:28;;;;;;;10.13;7.13;;;;;;;19.87;54.25;102604.44;5091121;28;20097;-68
2022/08/09 05:22:12;;;;;;;13.10;7.78;;;;;;;19.89;53.85;102607.91;5091277;28;20103;-68
2022/08/09 05:24:59;;;;;;;11.68;7.55;;;;;;;19.91;53.90;102606.78;5091279;28;20051;-68
2022/08/09 05:27:28;;;;;;;10.85;7.47;;;;;;;19.93;54.37;102603.94;5091038;27;20051;-69
2022/08/09 05:29:56;;;;;;;11.10;7.45;;;;;;;19.96;54.08;102614.56;5091013;28;20069;-68
2022/08/09 05:32:24;;;;;;;10.30;7.38;;;;;;;20.00;54.44;102608.75;5090789;28;20046;-69
2022/08/09 05:34:51;;;;;;;9.73;7.43;;;;;;;20.02;54.17;102611.34;5091303;28;20040;-69
2022/08/09 05:37:18;;;;;;;9.52;7.07;;;;;;;20.04;54.52;102612.09;5091347;28;20040;-69
2022/08/09 05:39:44;;;;;;;10.95;7.15;;;;;;;20.07;54.62;102603.69;5090812;28;20459;-69
2022/08/09 05:42:12;;;;;;;12.38;7.90;;;;;;;20.10;54.41;102606.16;5089632;28;20094;-69
2022/08/09 05:44:52;;;;;;;15.20;8.18;;;;;;;20.14;54.77;102610.34;5090343;28;20490;-68
2022/08/09 05:47:21;;;;;;;12.68;8.00;;;;;;;20.19;54.69;102612.69;5089859;28;20079;-69
2022/08/09 05:49:52;;;;;;;12.95;8.32;;;;;;;20.21;54.83;102613.44;5090352;27;20052;-68
2022/08/09 05:52:39;;;;;;;11.32;7.32;;;;;;;20.24;54.78;102613.16;5093899;28;20449;-68
2022/08/09 05:55:08;;;;;;;10.90;8.02;;;;;;;20.27;54.90;102611.06;5094666;28;20139;-68
2022/08/09 05:57:46;;;;;;;11.05;8.23;;;;;;;20.31;54.66;102612.53;5093466;28;20113;-68
2022/08/09 06:00:24;;;;;;;10.38;7.53;;;;;;;20.36;54.88;102619.44;5094575;28;20044;-69
2022/08/09 06:03:14;;;;;;;14.10;9.02;;;;;;;20.41;55.02;102618.09;5094659;28;20051;-69
2022/08/09 06:05:46;;;;;;;8.98;7.63;;;;;;;20.51;55.24;102616.31;5094831;28;20044;-69
2022/08/09 06:08:23;;;;;;;10.95;8.30;;;;;;;20.59;55.29;102623.84;5094283;28;20561;-69
2022/08/09 06:10:55;;;;;;;13.20;7.70;;;;;;;20.66;55.22;102624.19;5094618;28;20071;-70
2022/08/09 06:13:27;;;;;;;11.52;7.95;;;;;;;20.72;54.99;102627.25;5094681;28;20044;-69
2022/08/09 06:16:03;;;;;;;9.80;7.70;;;;;;;20.84;55.23;102630.84;5094349;28;20043;-69
2022/08/09 06:18:31;;;;;;;8.93;6.68;;;;;;;20.94;55.17;102635.38;5094495;28;20557;-70
2022/08/09 06:20:59;;;;;;;8.93;7.32;;;;;;;21.05;55.37;102630.84;5094404;28;20062;-69
2022/08/09 06:23:29;;;;;;;10.73;7.28;;;;;;;21.16;55.26;102638.94;5093625;28;20066;-70
2022/08/09 06:26:18;;;;;;;8.95;6.97;;;;;;;21.29;55.18;102639.63;5093889;28;20043;-71
2022/08/09 06:28:46;;;;;;;8.52;6.43;;;;;;;21.41;55.35;102638.56;5094189;28;20403;-74
2022/08/09 06:31:12;;;;;;;8.00;6.93;;;;;;;21.51;55.29;102639.47;5093260;28;20047;-74
2022/08/09 06:33:39;;;;;;;9.88;6.25;;;;;;;21.63;55.15;102642.13;5093962;28;20066;-71
2022/08/09 06:36:14;;;;;;;12.43;7.22;;;;;;;21.76;54.75;102637.28;5093913;28;20052;-72
2022/08/09 06:38:41;;;;;;;8.38;6.68;;;;;;;21.94;54.77;102635.63;5094145;28;20558;-72
2022/08/09 06:41:16;;;;;;;11.65;7.20;;;;;;;22.12;54.70;102638.56;5094193;28;20040;-71
2022/08/09 06:43:47;;;;;;;7.80;6.28;;;;;;;22.25;54.34;102639.16;5093933;28;20547;-74
2022/08/09 06:46:15;;;;;;;9.07;6.38;;;;;;;22.39;54.44;102636.06;5092114;27;20056;-71
2022/08/09 06:49:01;;;;;;;8.23;6.00;;;;;;;22.57;54.24;102644.41;5093820;28;20059;-70
2022/08/09 06:51:28;;;;;;;9.35;6.35;;;;;;;22.68;53.96;102641.53;5093365;28;20462;-69
2022/08/09 06:53:59;;;;;;;7.15;6.15;;;;;;;22.80;53.99;102645.88;5090806;28;20069;-69
2022/08/09 06:56:27;;;;;;;6.85;5.53;;;;;;;22.96;53.54;102648.03;5093365;27;20541;-69
2022/08/09 06:58:57;;;;;;;8.98;6.43;;;;;;;23.13;53.37;102639.09;5092150;28;20036;-69
2022/08/09 07:01:44;;;;;;;7.97;5.85;;;;;;;23.33;53.03;102645.38;5093525;28;20032;-70
2022/08/09 07:04:25;;;;;;;11.52;5.72;;;;;;;23.50;52.97;102648.34;5092559;28;20032;-69
2022/08/09 07:06:53;;;;;;;6.25;5.20;;;;;;;23.63;52.86;102652.53;5093214;27;20494;-69
2022/08/09 07:09:27;;;;;;;7.13;4.60;;;;;;;23.82;52.43;102651.59;5093371;28;20047;-69
2022/08/09 07:12:14;;;;;;;7.15;4.95;;;;;;;24.01;52.24;102656.97;5092888;28;20051;-69
2022/08/09 07:14:47;;;;;;;9.85;5.18;;;;;;;24.13;51.97;102651.28;5093211;28;20052;-69
2022/08/09 07:17:18;;;;;;;9.00;5.72;;;;;;;24.28;51.38;102664.34;5093053;28;20043;-68
2022/08/09 07:19:45;;;;;;;8.48;4.68;;;;;;;24.42;51.10;102653.84;5092952;28;20051;-68
2022/08/09 07:22:16;;;;;;;7.13;4.90;;;;;;;24.51;51.00;102656.53;5091374;28;20075;-70
2022/08/09 07:24:44;;;;;;;8.23;4.97;;;;;;;24.62;50.60;102655.47;5091370;28;21347;-72
2022/08/09 07:27:19;;;;;;;8.20;4.55;;;;;;;24.75;50.65;102650.44;5094297;28;20079;-72
2022/08/09 07:30:00;;;;;;;6.60;4.72;;;;;;;24.93;50.17;102653.16;5093336;27;20049;-73
2022/08/09 07:32:28;;;;;;;6.90;5.10;;;;;;;25.08;49.94;102654.34;5092927;28;20058;-71
2022/08/09 07:35:08;;;;;;;6.95;4.70;;;;;;;25.22;49.82;102656.50;5092444;27;20518;-72
2022/08/09 07:37:39;;;;;;;5.57;3.90;;;;;;;25.37;49.60;102661.44;5092908;28;20040;-71
2022/08/09 07:40:11;;;;;;;7.07;4.28;;;;;;;25.49;49.34;102662.88;5092822;28;20114;-71
2022/08/09 07:43:13;;;;;;;6.97;4.10;;;;;;;25.60;49.11;102657.09;5092387;28;20059;-71
2022/08/09 07:45:42;;;;;;;6.82;4.65;;;;;;;25.77;48.95;102658.94;5091916;28;20134;-72
2022/08/09 07:48:10;;;;;;;8.02;4.68;;;;;;;25.86;48.41;102655.19;5092530;28;20126;-72
2022/08/09 07:51:00;;;;;;;10.80;4.90;;;;;;;25.91;48.04;102650.06;5091419;28;20036;-71
2022/08/09 07:53:50;;;;;;;5.90;4.03;;;;;;;26.02;47.98;102659.94;5092117;28;20051;-74
2022/08/09 07:56:35;;;;;;;6.57;3.95;;;;;;;26.16;47.76;102663.94;5091333;28;20046;-72
2022/08/09 07:59:14;;;;;;;9.25;4.10;;;;;;;26.28;47.48;102668.09;5092133;28;20557;-70
2022/08/09 08:02:01;;;;;;;6.45;3.65;;;;;;;26.36;47.06;102661.78;5092081;28;20032;-73
2022/08/09 08:04:29;;;;;;;5.95;3.65;;;;;;;26.40;46.87;102661.28;5092172;28;20388;-72
2022/08/09 08:06:58;;;;;;;5.85;3.78;;;;;;;26.47;46.67;102669.72;5092152;27;20129;-71
2022/08/09 08:09:34;;;;;;;6.88;3.58;;;;;;;26.55;46.66;102665.09;5092496;28;20460;-71
2022/08/09 08:12:18;;;;;;;6.50;3.53;;;;;;;26.67;46.03;102673.88;5091898;28;20036;-71
2022/08/09 08:15:03;;;;;;;5.30;3.45;;;;;;;26.77;45.99;102674.63;5092074;28;20040;-71
2022/08/09 08:17:30;;;;;;;5.28;3.05;;;;;;;26.87;45.81;102678.06;5091880;28;20054;-72
2022/08/09 08:20:20;;;;;;;6.55;3.60;;;;;;;27.08;45.62;102674.81;5092102;28;20409;-72
2022/08/09 08:23:03;;;;;;;5.10;3.13;;;;;;;27.23;45.36;102673.09;5091814;28;20032;-71
2022/08/09 08:25:46;;;;;;;6.28;3.15;;;;;;;27.31;45.04;102663.06;5090675;28;20501;-72
2022/08/09 08:28:15;;;;;;;4.80;3.45;;;;;;;27.38;44.79;102658.56;5092201;28;20042;-72
2022/08/09 08:30:57;;;;;;;8.77;3.88;;;;;;;27.52;44.76;102649.59;5090696;28;20072;-73
2022/08/09 08:33:28;;;;;;;5.95;3.60;;;;;;;27.64;44.44;102656.50;5091594;28;20042;-73
2022/08/09 08:36:14;;;;;;;9.70;3.45;;;;;;;27.76;44.09;102657.81;5091652;28;20047;-72
2022/08/09 08:38:56;;;;;;;4.43;2.80;;;;;;;27.85;43.93;102656.75;5091605;28;20047;-72
2022/08/09 08:41:23;;;;;;;7.22;3.20;;;;;;;27.94;43.87;102662.25;5091891;28;20044;-73
2022/08/09 08:44:13;;;;;;;7.23;3.43;;;;;;;28.04;43.36;102658.22;5091548;28;20050;-71
2022/08/09 08:46:40;;;;;;;5.30;2.90;;;;;;;28.14;43.00;102660.75;5091953;27;20304;-73
2022/08/09 08:49:31;;;;;;;4.82;3.05;;;;;;;28.17;42.87;102666.78;5091630;28;20036;-72
2022/08/09 08:52:06;;;;;;;6.13;2.83;;;;;;;28.21;42.74;102661.75;5091575;28;20119;-73
2022/08/09 08:54:36;;;;;;;4.05;2.80;;;;;;;28.31;42.53;102659.69;5090869;28;20039;-74
2022/08/09 08:57:04;;;;;;;5.72;3.00;;;;;;;28.40;41.82;102661.34;5091440;28;20488;-72
2022/08/09 08:59:37;;;;;;;5.38;2.40;;;;;;;28.49;41.63;102667.69;5091540;28;20040;-71
2022/08/09 09:02:22;;;;;;;5.25;3.00;;;;;;;28.57;41.45;102658.47;5091180;28;20036;-73
2022/08/09 09:04:59;;;;;;;4.25;2.65;;;;;;;28.62;41.31;102670.69;5071709;28;20044;-72
2022/08/09 09:07:36;;;;;;;3.70;2.40;;;;;;;28.72;41.22;102670.44;5071473;28;20567;-71
2022/08/09 09:10:09;;;;;;;3.45;2.13;;;;;;;28.79;40.93;102676.97;5070919;28;20048;-72
2022/08/09 09:12:36;;;;;;;3.78;2.40;;;;;;;28.84;40.62;102674.53;5074362;28;20028;-73
2022/08/09 09:15:04;;;;;;;2.80;2.10;;;;;;;28.89;40.36;102677.59;5091441;28;20061;-72
2022/08/09 09:17:35;;;;;;;5.72;1.95;;;;;;;28.94;40.14;102677.91;5091307;28;20316;-73
2022/08/09 09:20:19;;;;;;;5.30;2.63;;;;;;;28.96;39.96;102678.56;5091465;28;20051;-73
2022/08/09 09:23:08;;;;;;;3.20;2.10;;;;;;;29.02;39.88;102677.00;5091383;28;20032;-74
2022/08/09 09:25:42;;;;;;;2.92;2.25;;;;;;;29.08;39.94;102671.59;5091445;28;20054;-74
2022/08/09 09:28:33;;;;;;;3.83;2.42;;;;;;;29.16;39.57;102673.41;5095577;28;20059;-70
2022/08/09 09:31:22;;;;;;;5.05;1.80;;;;;;;29.28;39.45;102677.44;5103159;27;20063;-71
2022/08/09 09:34:12;;;;;;;6.82;2.08;;;;;;;29.40;39.44;102672.31;5084993;28;20047;-71
2022/08/09 09:36:40;;;;;;;4.30;2.20;;;;;;;29.48;39.09;102672.25;5095420;28;20036;-71
2022/08/09 09:39:24;;;;;;;4.72;2.50;;;;;;;29.59;38.73;102674.53;5095019;28;20416;-70
2022/08/09 09:42:25;;;;;;;2.83;1.60;;;;;;;29.72;38.65;102662.78;5094845;28;20055;-71
2022/08/09 09:44:59;;;;;;;3.85;1.40;;;;;;;29.80;38.50;102664.63;5114951;27;20391;-71
2022/08/09 09:47:29;;;;;;;2.90;1.77;;;;;;;29.85;38.22;102667.69;5115668;28;20047;-71
2022/08/09 09:49:58;;;;;;;3.70;1.50;;;;;;;29.87;37.87;102660.06;5115204;28;20043;-71
2022/08/09 09:52:50;;;;;;;2.40;1.60;;;;;;;29.93;37.81;102654.59;5100553;28;20042;-71
2022/08/09 09:55:26;;;;;;;2.53;1.23;;;;;;;30.03;37.70;102670.94;5095003;28;20055;-71
2022/08/09 09:58:06;;;;;;;3.83;1.20;;;;;;;30.11;37.51;102665.28;5095494;28;20107;-71
2022/08/09 10:00:45;;;;;;;4.55;1.65;;;;;;;30.20;37.13;102666.91;5094864;28;20047;-71
2022/08/09 10:03:45;;;;;;;1.67;1.27;;;;;;;30.25;36.83;102667.16;5094562;28;20047;-72
2022/08/09 10:06:38;;;;;;;2.47;1.50;;;;;;;30.37;36.63;102673.06;5078763;28;20409;-72
2022/08/09 10:09:11;;;;;;;3.20;1.30;;;;;;;30.46;36.56;102669.13;5094534;28;20115;-72
2022/08/09 10:11:56;;;;;;;2.33;1.13;;;;;;;30.51;36.28;102663.00;5094510;28;20032;-71
2022/08/09 10:14:39;;;;;;;2.85;0.90;;;;;;;30.52;35.83;102673.03;5094696;28;20114;-71
2022/08/09 10:17:14;;;;;;;4.32;1.10;;;;;;;30.59;36.32;102671.22;5094393;27;20054;-71
2022/08/09 10:20:05;;;;;;;4.45;1.30;;;;;;;30.71;36.05;102671.56;5094680;28;20039;-72
2022/08/09 10:22:40;;;;;;;2.85;1.20;;;;;;;30.79;35.78;102665.88;5094581;28;20390;-72
2022/08/09 10:25:09;;;;;;;2.47;1.33;;;;;;;30.85;35.62;102665.09;5095268;28;20051;-72
2022/08/09 10:27:44;;;;;;;2.83;1.00;;;;;;;30.90;35.56;102665.34;5073965;28;20051;-73
2022/08/09 10:30:26;;;;;;;2.30;1.10;;;;;;;30.93;34.90;102665.81;5089609;28;20136;-74
2022/08/09 10:33:18;;;;;;;2.63;0.82;;;;;;;31.04;35.14;102663.53;5073278;28;20037;-73
2022/08/09 10:36:06;;;;;;;1.42;1.00;;;;;;;31.15;34.97;102647.22;5090103;28;20032;-73
2022/08/09 10:38:36;;;;;;;3.45;1.00;;;;;;;31.21;34.49;102652.00;5093623;28;20040;-72
2022/08/09 10:41:23;;;;;;;3.25;0.95;;;;;;;31.29;34.43;102654.63;5093776;28;20040;-71
2022/08/09 10:43:51;;;;;;;4.28;1.45;;;;;;;31.37;34.16;102647.19;5093205;28;20113;-72
2022/08/09 10:46:48;;;;;;;5.80;1.25;;;;;;;31.44;34.19;102646.19;5093619;28;20052;-72
2022/08/09 10:49:44;;;;;;;3.30;1.00;;;;;;;31.50;33.96;102633.41;5093283;27;20052;-72
2022/08/09 10:52:44;;;;;;;1.55;0.80;;;;;;;31.59;33.73;102640.50;5093435;28;20452;-74
2022/08/09 10:55:30;;;;;;;2.95;1.20;;;;;;;31.68;33.50;102635.63;5089518;28;20066;-73
2022/08/09 10:58:29;;;;;;;;;;;;;;;31.75;33.94;102629.06;5093911;28;20032;-73
2022/08/09 11:00:57;;;;;;;1.38;0.80;;;;;;;31.90;33.48;102621.44;5093677;28;19923;-73
2022/08/09 11:04:07;;;;;;;1.95;1.02;;;;;;;31.97;32.94;102624.28;5093046;28;20036;-73
2022/08/09 11:06:56;;;;;;;3.33;1.08;;;;;;;32.01;32.83;102633.06;5092125;28;20040;-71
2022/08/09 11:09:37;;;;;;;2.55;1.10;;;;;;;32.03;32.85;102625.38;5093294;28;20040;-73
2022/08/09 11:12:27;;;;;;;3.22;0.90;;;;;;;32.09;32.77;102628.19;5092954;28;20047;-72
2022/08/09 11:14:57;;;;;;;4.90;1.35;;;;;;;32.17;32.69;102619.66;5092603;28;20477;-73
2022/08/09 11:17:23;;;;;;;2.25;0.80;;;;;;;32.29;32.60;102628.25;5092580;28;20048;-73
2022/08/09 11:20:08;;;;;;;2.50;1.00;;;;;;;32.37;32.57;102621.66;5091769;28;20041;-72
2022/08/09 11:22:49;;;;;;;2.67;0.93;;;;;;;32.47;32.15;102622.94;5093035;28;20367;-73
2022/08/09 11:25:30;;;;;;;5.00;1.30;;;;;;;32.58;32.04;102631.75;5092832;27;20121;-72
2022/08/09 11:28:35;;;;;;;4.47;1.00;;;;;;;32.56;31.57;102623.59;5091787;28;20043;-73
2022/08/09 11:31:44;;;;;;;3.13;0.90;;;;;;;32.59;31.47;102617.63;5071384;28;20041;-72
2022/08/09 11:34:32;;;;;;;3.55;0.98;;;;;;;32.59;31.29;102613.97;5072677;28;20120;-73
2022/08/09 11:37:02;;;;;;;1.17;0.80;;;;;;;32.50;31.15;102604.97;5087975;28;20044;-72
2022/08/09 11:40:00;;;;;;;2.85;0.70;;;;;;;32.51;31.09;102615.03;5083447;28;20039;-71
2022/08/09 11:42:47;;;;;;;1.77;0.82;;;;;;;32.53;30.95;102605.41;5092700;28;20465;-72
2022/08/09 11:45:43;;;;;;;2.33;0.90;;;;;;;32.58;30.92;102598.34;5092465;28;20113;-73
2022/08/09 11:48:21;;;;;;;2.40;0.90;;;;;;;32.72;30.81;102598.19;5092467;28;20047;-73
2022/08/09 11:50:55;;;;;;;4.00;0.90;;;;;;;32.88;30.93;102601.63;5090946;28;20060;-72
2022/08/09 11:53:43;;;;;;;1.33;0.80;;;;;;;32.94;30.55;102589.66;5092707;28;20048;-73
2022/08/09 11:56:29;;;;;;;1.40;0.73;;;;;;;33.00;30.40;102594.34;5092414;28;20097;-72
2022/08/09 11:59:24;;;;;;;5.43;0.95;;;;;;;33.02;30.04;102598.63;5092666;28;20036;-74
2022/08/09 12:01:59;;;;;;;1.52;0.70;;;;;;;33.07;30.09;102598.84;5092590;28;20194;-72
2022/08/09 12:04:51;;;;;;;1.80;0.73;;;;;;;33.14;29.79;102598.81;5092800;28;20044;-73
2022/08/09 12:07:29;;;;;;;1.40;0.60;;;;;;;33.20;29.53;102595.16;5092008;28;20367;-73
2022/08/09 12:10:09;;;;;;;2.05;0.70;;;;;;;33.26;29.67;102594.31;5090703;28;20052;-73
2022/08/09 12:13:00;;;;;;;1.85;0.60;;;;;;;33.33;29.47;102589.59;5092477;28;20044;-74